sensor_id;sensor_type;location;lat;lon;timestamp;pressure;altitude;pressure_sealevel;temperature;humidity
40502;BME280;29631;49.168;9.848;2023-03-23T00:01:15;96049.63;;;17.47;69.84
40502;BME280;29631;49.168;9.848;2023-03-23T00:03:50;96047.22;;;17.46;69.97
40502;BME280;29631;49.168;9.848;2023-03-23T00:06:17;96057.06;;;17.45;69.61
40502;BME280;29631;49.168;9.848;2023-03-23T00:08:49;96057.06;;;17.40;69.56
40502;BME280;29631;49.168;9.848;2023-03-23T00:11:21;96061.59;;;17.35;69.51
40502;BME280;29631;49.168;9.848;2023-03-23T00:13:50;96042.41;;;17.43;69.27
40502;BME280;29631;49.168;9.848;2023-03-23T00:16:24;96054.97;;;17.47;69.53
40502;BME280;29631;49.168;9.848;2023-03-23T00:19:04;96040.28;;;17.45;69.38
40502;BME280;29631;49.168;9.848;2023-03-23T00:21:35;96019.47;;;17.27;69.33
40502;BME280;29631;49.168;9.848;2023-03-23T00:24:12;96059.00;;;17.59;69.72
40502;BME280;29631;49.168;9.848;2023-03-23T00:26:40;96034.19;;;17.44;69.78
40502;BME280;29631;49.168;9.848;2023-03-23T00:29:09;96045.94;;;17.63;69.40
40502;BME280;29631;49.168;9.848;2023-03-23T00:31:39;96049.41;;;17.68;69.79
40502;BME280;29631;49.168;9.848;2023-03-23T00:34:05;96043.03;;;17.69;69.49
40502;BME280;29631;49.168;9.848;2023-03-23T00:36:34;96033.69;;;17.67;69.79
40502;BME280;29631;49.168;9.848;2023-03-23T00:39:02;96030.22;;;17.71;69.90
40502;BME280;29631;49.168;9.848;2023-03-23T00:41:30;96023.28;;;17.70;69.47
40502;BME280;29631;49.168;9.848;2023-03-23T00:43:58;96032.34;;;17.69;69.47
40502;BME280;29631;49.168;9.848;2023-03-23T00:46:27;96015.28;;;17.60;69.97
40502;BME280;29631;49.168;9.848;2023-03-23T00:48:54;96049.97;;;17.80;69.63
40502;BME280;29631;49.168;9.848;2023-03-23T00:51:23;96041.44;;;17.78;69.80
40502;BME280;29631;49.168;9.848;2023-03-23T00:53:50;96040.91;;;17.71;70.30
40502;BME280;29631;49.168;9.848;2023-03-23T00:56:16;96046.50;;;17.75;70.17
40502;BME280;29631;49.168;9.848;2023-03-23T00:58:42;96018.19;;;17.59;70.46
40502;BME280;29631;49.168;9.848;2023-03-23T01:01:08;96031.28;;;17.65;70.33
40502;BME280;29631;49.168;9.848;2023-03-23T01:03:35;96027.53;;;17.56;70.63
40502;BME280;29631;49.168;9.848;2023-03-23T01:06:08;96024.34;;;17.59;69.98
40502;BME280;29631;49.168;9.848;2023-03-23T01:08:41;96025.69;;;17.62;69.75
40502;BME280;29631;49.168;9.848;2023-03-23T01:11:13;96031.81;;;17.62;70.81
40502;BME280;29631;49.168;9.848;2023-03-23T01:13:41;96008.88;;;17.51;70.32
40502;BME280;29631;49.168;9.848;2023-03-23T01:16:08;96039.00;;;17.67;70.15
40502;BME280;29631;49.168;9.848;2023-03-23T01:18:34;95997.94;;;17.53;70.57
40502;BME280;29631;49.168;9.848;2023-03-23T01:21:09;96009.41;;;17.63;70.71
40502;BME280;29631;49.168;9.848;2023-03-23T01:23:36;95949.59;;;17.25;70.18
40502;BME280;29631;49.168;9.848;2023-03-23T01:26:18;96007.81;;;17.57;69.99
40502;BME280;29631;49.168;9.848;2023-03-23T01:28:44;95994.47;;;17.52;70.30
40502;BME280;29631;49.168;9.848;2023-03-23T01:31:16;96002.47;;;17.57;70.49
40502;BME280;29631;49.168;9.848;2023-03-23T01:33:44;95975.81;;;17.48;70.17
40502;BME280;29631;49.168;9.848;2023-03-23T01:36:25;95981.66;;;17.49;70.13
40502;BME280;29631;49.168;9.848;2023-03-23T01:39:00;95990.75;;;17.53;70.04
40502;BME280;29631;49.168;9.848;2023-03-23T01:41:27;95983.81;;;17.52;70.22
40502;BME280;29631;49.168;9.848;2023-03-23T01:46:57;95924.53;;;17.16;70.40
40502;BME280;29631;49.168;9.848;2023-03-23T01:49:31;95998.19;;;17.56;70.68
40502;BME280;29631;49.168;9.848;2023-03-23T01:52:10;95971.00;;;17.49;70.12
40502;BME280;29631;49.168;9.848;2023-03-23T01:54:42;95949.41;;;17.41;69.89
40502;BME280;29631;49.168;9.848;2023-03-23T01:57:16;95974.75;;;17.53;70.51
40502;BME280;29631;49.168;9.848;2023-03-23T01:59:50;95970.47;;;17.57;70.05
40502;BME280;29631;49.168;9.848;2023-03-23T02:02:18;95956.09;;;17.53;69.96
40502;BME280;29631;49.168;9.848;2023-03-23T02:04:46;95973.41;;;17.66;70.19
40502;BME280;29631;49.168;9.848;2023-03-23T02:07:14;95961.69;;;17.62;70.10
40502;BME280;29631;49.168;9.848;2023-03-23T02:09:41;95933.16;;;17.48;69.93
40502;BME280;29631;49.168;9.848;2023-03-23T02:12:06;95890.44;;;17.23;69.95
40502;BME280;29631;49.168;9.848;2023-03-23T02:14:32;95876.56;;;17.16;70.25
40502;BME280;29631;49.168;9.848;2023-03-23T02:17:10;95956.09;;;17.63;70.70
40502;BME280;29631;49.168;9.848;2023-03-23T02:25:29;95966.75;;;17.63;70.23
40502;BME280;29631;49.168;9.848;2023-03-23T02:39:24;95941.16;;;17.67;70.53
40502;BME280;29631;49.168;9.848;2023-03-23T02:42:00;95935.31;;;17.65;70.64
40502;BME280;29631;49.168;9.848;2023-03-23T02:44:29;95941.19;;;17.72;70.57
40502;BME280;29631;49.168;9.848;2023-03-23T02:46:58;95926.50;;;17.70;69.56
40502;BME280;29631;49.168;9.848;2023-03-23T02:49:27;95936.38;;;17.69;69.79
40502;BME280;29631;49.168;9.848;2023-03-23T02:51:56;95920.63;;;17.68;69.42
40502;BME280;29631;49.168;9.848;2023-03-23T02:54:24;95919.84;;;17.72;69.88
40502;BME280;29631;49.168;9.848;2023-03-23T02:56:53;95921.44;;;17.73;70.58
40502;BME280;29631;49.168;9.848;2023-03-23T02:59:20;95897.72;;;17.62;70.00
40502;BME280;29631;49.168;9.848;2023-03-23T03:01:53;95910.78;;;17.73;69.55
40502;BME280;29631;49.168;9.848;2023-03-23T03:04:23;95907.56;;;17.71;70.27
40502;BME280;29631;49.168;9.848;2023-03-23T03:13:14;95899.06;;;17.59;70.33
40502;BME280;29631;49.168;9.848;2023-03-23T03:16:14;95902.75;;;17.68;69.33
40502;BME280;29631;49.168;9.848;2023-03-23T03:19:19;95912.38;;;17.69;69.26
40502;BME280;29631;49.168;9.848;2023-03-23T03:21:45;95886.22;;;17.61;69.74
40502;BME280;29631;49.168;9.848;2023-03-23T03:24:17;95912.63;;;17.68;69.85
40502;BME280;29631;49.168;9.848;2023-03-23T03:26:49;95907.31;;;17.68;70.33
40502;BME280;29631;49.168;9.848;2023-03-23T03:29:18;95904.09;;;17.66;69.51
40502;BME280;29631;49.168;9.848;2023-03-23T03:31:47;95901.69;;;17.74;69.83
40502;BME280;29631;49.168;9.848;2023-03-23T03:34:15;95908.38;;;17.72;69.55
40502;BME280;29631;49.168;9.848;2023-03-23T03:36:45;95897.97;;;17.75;69.40
40502;BME280;29631;49.168;9.848;2023-03-23T03:39:13;95868.41;;;17.57;69.71
40502;BME280;29631;49.168;9.848;2023-03-23T03:41:41;95808.41;;;17.25;69.52
40502;BME280;29631;49.168;9.848;2023-03-23T03:44:07;95891.03;;;17.74;69.74
40502;BME280;29631;49.168;9.848;2023-03-23T03:46:35;95912.38;;;17.84;69.74
40502;BME280;29631;49.168;9.848;2023-03-23T03:49:06;95904.38;;;17.79;69.77
40502;BME280;29631;49.168;9.848;2023-03-23T03:51:33;95874.00;;;17.65;69.60
40502;BME280;29631;49.168;9.848;2023-03-23T03:53:59;95904.88;;;17.86;69.40
40502;BME280;29631;49.168;9.848;2023-03-23T03:56:25;95887.56;;;17.79;69.83
40502;BME280;29631;49.168;9.848;2023-03-23T03:58:52;95895.28;;;17.90;69.62
40502;BME280;29631;49.168;9.848;2023-03-23T04:01:20;95899.81;;;17.90;69.68
40502;BME280;29631;49.168;9.848;2023-03-23T04:03:48;95863.31;;;17.70;69.39
40502;BME280;29631;49.168;9.848;2023-03-23T04:06:15;95886.75;;;17.88;69.54
40502;BME280;29631;49.168;9.848;2023-03-23T04:08:41;95905.94;;;18.00;69.67
40502;BME280;29631;49.168;9.848;2023-03-23T04:11:09;95888.88;;;17.96;69.31
40502;BME280;29631;49.168;9.848;2023-03-23T04:13:36;95883.56;;;17.91;69.65
40502;BME280;29631;49.168;9.848;2023-03-23T04:16:02;95901.41;;;18.01;70.00
40502;BME280;29631;49.168;9.848;2023-03-23T04:18:27;95861.69;;;17.84;69.72
40502;BME280;29631;49.168;9.848;2023-03-23T04:20:54;95853.16;;;17.77;69.38
40502;BME280;29631;49.168;9.848;2023-03-23T04:23:25;95893.13;;;18.02;69.56
40502;BME280;29631;49.168;9.848;2023-03-23T04:25:52;95867.53;;;17.86;69.67
40502;BME280;29631;49.168;9.848;2023-03-23T04:28:23;95892.84;;;18.04;69.80
40502;BME280;29631;49.168;9.848;2023-03-23T04:30:51;95894.44;;;18.10;69.50
40502;BME280;29631;49.168;9.848;2023-03-23T04:33:25;95895.00;;;18.07;69.62
40502;BME280;29631;49.168;9.848;2023-03-23T04:35:54;95912.88;;;18.06;69.66
40502;BME280;29631;49.168;9.848;2023-03-23T04:38:21;95898.22;;;18.09;69.29
40502;BME280;29631;49.168;9.848;2023-03-23T04:40:51;95907.81;;;18.15;69.66
40502;BME280;29631;49.168;9.848;2023-03-23T04:43:22;95886.19;;;18.06;69.73
40502;BME280;29631;49.168;9.848;2023-03-23T04:45:58;95911.28;;;18.20;69.77
40502;BME280;29631;49.168;9.848;2023-03-23T04:48:28;95889.38;;;18.08;69.71
40502;BME280;29631;49.168;9.848;2023-03-23T04:50:56;95900.59;;;18.20;69.06
40502;BME280;29631;49.168;9.848;2023-03-23T04:53:22;95904.84;;;18.26;69.28
40502;BME280;29631;49.168;9.848;2023-03-23T04:55:48;95891.50;;;18.26;69.48
40502;BME280;29631;49.168;9.848;2023-03-23T04:58:15;95886.19;;;18.21;69.65
40502;BME280;29631;49.168;9.848;2023-03-23T05:00:42;95907.53;;;18.31;69.63
40502;BME280;29631;49.168;9.848;2023-03-23T05:03:19;95884.34;;;18.07;70.06
40502;BME280;29631;49.168;9.848;2023-03-23T05:05:46;95830.53;;;17.70;70.17
40502;BME280;29631;49.168;9.848;2023-03-23T05:08:20;95891.53;;;18.11;69.76
40502;BME280;29631;49.168;9.848;2023-03-23T05:11:00;95902.72;;;18.13;70.06
40502;BME280;29631;49.168;9.848;2023-03-23T05:13:28;95909.94;;;18.13;69.90
40502;BME280;29631;49.168;9.848;2023-03-23T05:15:54;95913.66;;;18.17;69.76
40502;BME280;29631;49.168;9.848;2023-03-23T05:18:20;95905.38;;;18.13;69.80
40502;BME280;29631;49.168;9.848;2023-03-23T05:20:47;95910.19;;;18.16;69.60
40502;BME280;29631;49.168;9.848;2023-03-23T05:23:14;95913.94;;;18.20;69.40
40502;BME280;29631;49.168;9.848;2023-03-23T05:25:40;95896.84;;;18.16;69.70
40502;BME280;29631;49.168;9.848;2023-03-23T05:28:07;95896.28;;;18.19;69.25
40502;BME280;29631;49.168;9.848;2023-03-23T05:30:34;95892.06;;;18.18;69.33
40502;BME280;29631;49.168;9.848;2023-03-23T05:33:00;95906.47;;;18.27;69.43
40502;BME280;29631;49.168;9.848;2023-03-23T05:35:26;95854.75;;;17.98;69.33
40502;BME280;29631;49.168;9.848;2023-03-23T05:37:52;95900.56;;;18.40;68.94
40502;BME280;29631;49.168;9.848;2023-03-23T05:40:19;95878.97;;;18.26;69.25
40502;BME280;29631;49.168;9.848;2023-03-23T05:42:46;95898.41;;;18.42;69.40
40502;BME280;29631;49.168;9.848;2023-03-23T05:45:13;95890.97;;;18.34;69.39
40502;BME280;29631;49.168;9.848;2023-03-23T05:47:40;95892.25;;;18.41;69.35
40502;BME280;29631;49.168;9.848;2023-03-23T05:50:08;95902.13;;;18.46;69.26
40502;BME280;29631;49.168;9.848;2023-03-23T05:52:39;95907.47;;;18.46;69.26
40502;BME280;29631;49.168;9.848;2023-03-23T05:55:06;95888.81;;;18.41;69.01
40502;BME280;29631;49.168;9.848;2023-03-23T05:57:33;95916.50;;;18.60;69.14
40502;BME280;29631;49.168;9.848;2023-03-23T05:59:59;95912.22;;;18.59;69.13
40502;BME280;29631;49.168;9.848;2023-03-23T06:02:25;95914.38;;;18.62;69.40
40502;BME280;29631;49.168;9.848;2023-03-23T06:04:54;95908.47;;;18.65;69.44
40502;BME280;29631;49.168;9.848;2023-03-23T06:07:24;95920.47;;;18.67;69.06
40502;BME280;29631;49.168;9.848;2023-03-23T06:09:51;95834.91;;;18.19;69.44
40502;BME280;29631;49.168;9.848;2023-03-23T06:12:17;95907.94;;;18.68;69.24
40502;BME280;29631;49.168;9.848;2023-03-23T06:14:46;95919.41;;;18.68;69.36
40502;BME280;29631;49.168;9.848;2023-03-23T06:17:15;95936.75;;;18.71;69.43
40502;BME280;29631;49.168;9.848;2023-03-23T06:19:41;95940.22;;;18.76;69.96
40502;BME280;29631;49.168;9.848;2023-03-23T06:22:07;95939.44;;;18.76;69.58
40502;BME280;29631;49.168;9.848;2023-03-23T06:24:33;95923.44;;;18.66;69.36
40502;BME280;29631;49.168;9.848;2023-03-23T06:26:59;95940.47;;;18.80;69.65
40502;BME280;29631;49.168;9.848;2023-03-23T06:29:26;95918.09;;;18.66;69.73
40502;BME280;29631;49.168;9.848;2023-03-23T06:31:56;95937.00;;;18.79;69.66
40502;BME280;29631;49.168;9.848;2023-03-23T06:34:23;95916.47;;;18.70;69.41
40502;BME280;29631;49.168;9.848;2023-03-23T06:36:49;95925.56;;;18.69;69.35
40502;BME280;29631;49.168;9.848;2023-03-23T06:39:14;95952.19;;;18.89;68.97
40502;BME280;29631;49.168;9.848;2023-03-23T06:41:41;95929.50;;;18.81;69.77
40502;BME280;29631;49.168;9.848;2023-03-23T06:44:07;95954.31;;;18.92;69.57
40502;BME280;29631;49.168;9.848;2023-03-23T06:46:34;95967.91;;;18.95;69.40
40502;BME280;29631;49.168;9.848;2023-03-23T06:49:00;95895.97;;;18.60;69.54
40502;BME280;29631;49.168;9.848;2023-03-23T06:51:26;95953.25;;;18.92;69.47
40502;BME280;29631;49.168;9.848;2023-03-23T06:53:52;95952.72;;;18.95;69.81
40502;BME280;29631;49.168;9.848;2023-03-23T06:56:17;95956.13;;;19.01;69.51
40502;BME280;29631;49.168;9.848;2023-03-23T06:58:43;95945.75;;;18.94;70.11
40502;BME280;29631;49.168;9.848;2023-03-23T07:01:11;95960.69;;;19.00;69.47
40502;BME280;29631;49.168;9.848;2023-03-23T07:03:38;95912.72;;;18.71;70.19
40502;BME280;29631;49.168;9.848;2023-03-23T07:06:05;95959.06;;;19.09;70.63
40502;BME280;29631;49.168;9.848;2023-03-23T07:08:31;95977.22;;;19.17;70.69
40502;BME280;29631;49.168;9.848;2023-03-23T07:10:57;95984.41;;;19.22;70.45
40502;BME280;29631;49.168;9.848;2023-03-23T07:13:23;95987.09;;;19.22;70.36
40502;BME280;29631;49.168;9.848;2023-03-23T07:15:49;95970.81;;;19.13;70.73
40502;BME280;29631;49.168;9.848;2023-03-23T07:18:16;95978.28;;;19.21;70.33
40502;BME280;29631;49.168;9.848;2023-03-23T07:20:42;95969.75;;;19.04;70.77
40502;BME280;29631;49.168;9.848;2023-03-23T07:23:08;95974.00;;;19.20;70.82
40502;BME280;29631;49.168;9.848;2023-03-23T07:25:35;95984.09;;;19.28;70.95
40502;BME280;29631;49.168;9.848;2023-03-23T07:28:02;95982.78;;;19.31;71.31
40502;BME280;29631;49.168;9.848;2023-03-23T07:30:29;95970.75;;;19.23;70.93
40502;BME280;29631;49.168;9.848;2023-03-23T07:32:56;95986.75;;;19.28;71.09
40502;BME280;29631;49.168;9.848;2023-03-23T07:35:24;95979.09;;;19.17;70.76
40502;BME280;29631;49.168;9.848;2023-03-23T07:37:51;96000.66;;;19.30;71.50
40502;BME280;29631;49.168;9.848;2023-03-23T07:40:18;95995.84;;;19.32;71.61
40502;BME280;29631;49.168;9.848;2023-03-23T07:42:54;95990.00;;;19.25;71.69
40502;BME280;29631;49.168;9.848;2023-03-23T07:45:21;95995.06;;;19.27;71.64
40502;BME280;29631;49.168;9.848;2023-03-23T07:47:47;95993.22;;;19.27;71.43
40502;BME280;29631;49.168;9.848;2023-03-23T07:50:13;96000.13;;;19.28;72.01
40502;BME280;29631;49.168;9.848;2023-03-23T07:52:40;95997.50;;;19.23;71.83
40502;BME280;29631;49.168;9.848;2023-03-23T07:55:09;95997.22;;;19.25;72.18
40502;BME280;29631;49.168;9.848;2023-03-23T07:57:44;96003.66;;;19.24;72.16
40502;BME280;29631;49.168;9.848;2023-03-23T08:00:11;96008.72;;;19.25;72.14
40502;BME280;29631;49.168;9.848;2023-03-23T08:02:46;96015.38;;;19.28;72.19
40502;BME280;29631;49.168;9.848;2023-03-23T08:05:14;96017.28;;;19.27;72.14
40502;BME280;29631;49.168;9.848;2023-03-23T08:07:41;96017.53;;;19.26;71.82
40502;BME280;29631;49.168;9.848;2023-03-23T08:10:09;96020.44;;;19.29;72.37
40502;BME280;29631;49.168;9.848;2023-03-23T08:12:36;96015.91;;;19.25;72.25
40502;BME280;29631;49.168;9.848;2023-03-23T08:15:04;96012.22;;;19.21;72.45
40502;BME280;29631;49.168;9.848;2023-03-23T08:17:30;96007.94;;;19.20;72.91
40502;BME280;29631;49.168;9.848;2023-03-23T08:19:56;96025.28;;;19.27;72.49
40502;BME280;29631;49.168;9.848;2023-03-23T08:22:23;96024.47;;;19.27;72.79
40502;BME280;29631;49.168;9.848;2023-03-23T08:24:49;96026.38;;;19.21;73.19
40502;BME280;29631;49.168;9.848;2023-03-23T08:27:14;96038.91;;;19.26;73.07
40502;BME280;29631;49.168;9.848;2023-03-23T08:29:40;96027.72;;;19.19;73.37
40502;BME280;29631;49.168;9.848;2023-03-23T08:32:06;96048.00;;;19.25;73.55
40502;BME280;29631;49.168;9.848;2023-03-23T08:34:32;96034.13;;;19.23;73.66
40502;BME280;29631;49.168;9.848;2023-03-23T08:36:58;96050.41;;;19.26;72.89
40502;BME280;29631;49.168;9.848;2023-03-23T08:39:23;96043.22;;;19.22;73.25
40502;BME280;29631;49.168;9.848;2023-03-23T08:41:50;96044.00;;;19.22;73.39
40502;BME280;29631;49.168;9.848;2023-03-23T08:44:16;96042.16;;;19.23;73.12
40502;BME280;29631;49.168;9.848;2023-03-23T08:46:42;96034.41;;;19.16;73.26
40502;BME280;29631;49.168;9.848;2023-03-23T08:49:08;96056.59;;;19.22;73.35
40502;BME280;29631;49.168;9.848;2023-03-23T08:51:33;96055.78;;;19.16;72.86
40502;BME280;29631;49.168;9.848;2023-03-23T08:53:59;96048.56;;;19.07;73.28
40502;BME280;29631;49.168;9.848;2023-03-23T08:56:25;96052.06;;;19.02;73.12
40502;BME280;29631;49.168;9.848;2023-03-23T08:58:51;96059.28;;;19.02;73.07
40502;BME280;29631;49.168;9.848;2023-03-23T09:01:17;96063.28;;;19.04;73.32
40502;BME280;29631;49.168;9.848;2023-03-23T09:03:43;96055.00;;;19.06;73.42
40502;BME280;29631;49.168;9.848;2023-03-23T09:06:09;96066.22;;;19.03;73.08
40502;BME280;29631;49.168;9.848;2023-03-23T09:08:39;96055.81;;;18.96;73.76
40502;BME280;29631;49.168;9.848;2023-03-23T09:11:09;96058.75;;;19.00;74.00
40502;BME280;29631;49.168;9.848;2023-03-23T09:13:36;96071.84;;;19.06;74.21
40502;BME280;29631;49.168;9.848;2023-03-23T09:16:05;96078.78;;;19.07;73.60
40502;BME280;29631;49.168;9.848;2023-03-23T09:18:31;96074.53;;;19.11;73.80
40502;BME280;29631;49.168;9.848;2023-03-23T09:20:58;96083.88;;;19.14;73.98
40502;BME280;29631;49.168;9.848;2023-03-23T09:23:25;96072.63;;;19.12;73.51
40502;BME280;29631;49.168;9.848;2023-03-23T09:25:51;96091.09;;;19.13;74.13
40502;BME280;29631;49.168;9.848;2023-03-23T09:28:17;96093.75;;;19.13;74.34
40502;BME280;29631;49.168;9.848;2023-03-23T09:30:44;96092.69;;;19.14;74.20
40502;BME280;29631;49.168;9.848;2023-03-23T09:33:11;96091.06;;;19.18;74.58
40502;BME280;29631;49.168;9.848;2023-03-23T09:35:37;96088.41;;;19.13;73.87
40502;BME280;29631;49.168;9.848;2023-03-23T09:38:05;96098.03;;;19.09;74.27
40502;BME280;29631;49.168;9.848;2023-03-23T09:49:29;96101.25;;;18.96;74.55
40502;BME280;29631;49.168;9.848;2023-03-23T09:52:16;96102.31;;;18.91;74.57
40502;BME280;29631;49.168;9.848;2023-03-23T09:54:51;96101.25;;;18.92;74.41
40502;BME280;29631;49.168;9.848;2023-03-23T10:00:01;96107.13;;;18.93;74.77
40502;BME280;29631;49.168;9.848;2023-03-23T10:02:41;96120.22;;;18.90;74.93
40502;BME280;29631;49.168;9.848;2023-03-23T10:05:42;96121.06;;;18.81;75.09
40502;BME280;29631;49.168;9.848;2023-03-23T10:08:21;96113.56;;;18.73;75.33
40502;BME280;29631;49.168;9.848;2023-03-23T10:11:04;96117.28;;;18.77;75.17
40502;BME280;29631;49.168;9.848;2023-03-23T10:16:29;96118.91;;;18.83;75.65
40502;BME280;29631;49.168;9.848;2023-03-23T10:19:20;96128.25;;;18.80;75.46
40502;BME280;29631;49.168;9.848;2023-03-23T10:21:54;96137.59;;;18.78;75.01
40502;BME280;29631;49.168;9.848;2023-03-23T10:24:31;96137.59;;;18.78;75.61
40502;BME280;29631;49.168;9.848;2023-03-23T10:27:33;96137.59;;;18.78;75.45
40502;BME280;29631;49.168;9.848;2023-03-23T10:30:18;96135.47;;;18.80;76.35
40502;BME280;29631;49.168;9.848;2023-03-23T10:32:54;96138.41;;;18.73;75.67
40502;BME280;29631;49.168;9.848;2023-03-23T10:35:29;96140.81;;;18.80;76.61
40502;BME280;29631;49.168;9.848;2023-03-23T10:38:02;96148.28;;;18.78;76.68
40502;BME280;29631;49.168;9.848;2023-03-23T10:40:30;96147.50;;;18.77;76.11
40502;BME280;29631;49.168;9.848;2023-03-23T10:42:58;96137.59;;;18.78;76.49
40502;BME280;29631;49.168;9.848;2023-03-23T10:45:27;96129.59;;;18.83;76.71
40502;BME280;29631;49.168;9.848;2023-03-23T10:50:32;96142.41;;;18.81;76.43
40502;BME280;29631;49.168;9.848;2023-03-23T10:53:01;96146.69;;;18.77;76.79
40502;BME280;29631;49.168;9.848;2023-03-23T10:55:39;96146.19;;;18.70;76.85
40502;BME280;29631;49.168;9.848;2023-03-23T10:58:12;96137.63;;;18.68;76.55
40502;BME280;29631;49.168;9.848;2023-03-23T11:00:47;96144.03;;;18.62;77.10
40502;BME280;29631;49.168;9.848;2023-03-23T11:08:23;96152.03;;;18.57;77.29
40502;BME280;29631;49.168;9.848;2023-03-23T11:11:16;96144.03;;;18.57;77.19
40502;BME280;29631;49.168;9.848;2023-03-23T11:13:45;96146.16;;;18.60;77.38
40502;BME280;29631;49.168;9.848;2023-03-23T11:16:26;96151.50;;;18.60;77.17
40502;BME280;29631;49.168;9.848;2023-03-23T11:18:54;96152.84;;;18.57;77.03
40502;BME280;29631;49.168;9.848;2023-03-23T11:21:23;96145.88;;;18.56;77.79
40502;BME280;29631;49.168;9.848;2023-03-23T11:23:57;96149.88;;;18.59;77.38
40502;BME280;29631;49.168;9.848;2023-03-23T11:26:30;96142.94;;;18.58;77.92
40502;BME280;29631;49.168;9.848;2023-03-23T11:29:22;96140.81;;;18.60;78.28
40502;BME280;29631;49.168;9.848;2023-03-23T11:32:05;96145.34;;;18.64;78.18
40502;BME280;29631;49.168;9.848;2023-03-23T11:34:45;96147.25;;;18.69;77.63
40502;BME280;29631;49.168;9.848;2023-03-23T11:37:28;96148.56;;;18.71;77.94
40502;BME280;29631;49.168;9.848;2023-03-23T11:40:00;96156.31;;;18.73;77.73
40502;BME280;29631;49.168;9.848;2023-03-23T11:42:47;96147.22;;;18.74;78.43
40502;BME280;29631;49.168;9.848;2023-03-23T11:51:13;96139.22;;;18.74;78.75
40502;BME280;29631;49.168;9.848;2023-03-23T11:53:53;96139.75;;;18.76;79.03
40502;BME280;29631;49.168;9.848;2023-03-23T11:56:34;96139.22;;;18.69;78.93
40502;BME280;29631;49.168;9.848;2023-03-23T11:59:02;96136.81;;;18.72;78.83
40502;BME280;29631;49.168;9.848;2023-03-23T12:02:32;96140.28;;;18.68;78.56
40502;BME280;29631;49.168;9.848;2023-03-23T12:10:45;96142.97;;;18.68;78.66
40502;BME280;29631;49.168;9.848;2023-03-23T12:16:56;96145.09;;;18.76;79.17
40502;BME280;29631;49.168;9.848;2023-03-23T12:23:16;96146.69;;;18.87;78.23
40502;BME280;29631;49.168;9.848;2023-03-23T12:26:07;96146.16;;;18.85;78.29
40502;BME280;29631;49.168;9.848;2023-03-23T12:34:42;96146.69;;;18.87;79.05
40502;BME280;29631;49.168;9.848;2023-03-23T12:38:13;96141.88;;;18.84;78.44
40502;BME280;29631;49.168;9.848;2023-03-23T12:41:23;96142.97;;;18.83;78.52
40502;BME280;29631;49.168;9.848;2023-03-23T12:44:06;96130.13;;;18.80;77.84
40502;BME280;29631;49.168;9.848;2023-03-23T12:47:07;96138.69;;;18.82;78.29
40502;BME280;29631;49.168;9.848;2023-03-23T12:49:44;96127.44;;;18.85;78.11
40502;BME280;29631;49.168;9.848;2023-03-23T12:52:33;96116.78;;;18.80;78.19
40502;BME280;29631;49.168;9.848;2023-03-23T12:55:11;96122.63;;;18.92;78.12
40502;BME280;29631;49.168;9.848;2023-03-23T12:57:53;96128.22;;;19.00;78.09
40502;BME280;29631;49.168;9.848;2023-03-23T13:08:54;96121.25;;;19.19;78.44
40502;BME280;29631;49.168;9.848;2023-03-23T13:11:37;96119.66;;;19.23;78.03
40502;BME280;29631;49.168;9.848;2023-03-23T13:14:29;96119.09;;;19.26;78.56
40502;BME280;29631;49.168;9.848;2023-03-23T13:17:46;96100.69;;;19.24;78.59
40502;BME280;29631;49.168;9.848;2023-03-23T13:23:25;96106.00;;;19.34;78.26
40502;BME280;29631;49.168;9.848;2023-03-23T13:26:07;96103.56;;;19.38;78.63
40502;BME280;29631;49.168;9.848;2023-03-23T13:34:23;96087.28;;;19.39;78.62
40502;BME280;29631;49.168;9.848;2023-03-23T13:37:02;96082.97;;;19.43;78.96
40502;BME280;29631;49.168;9.848;2023-03-23T13:39:37;96086.16;;;19.50;77.98
40502;BME280;29631;49.168;9.848;2023-03-23T13:47:26;96081.84;;;19.59;78.00
40502;BME280;29631;49.168;9.848;2023-03-23T14:03:26;96056.06;;;19.73;78.45
40502;BME280;29631;49.168;9.848;2023-03-23T14:11:26;96056.50;;;19.90;78.53
40502;BME280;29631;49.168;9.848;2023-03-23T14:14:07;96059.13;;;20.00;78.62
40502;BME280;29631;49.168;9.848;2023-03-23T14:16:41;96040.41;;;20.00;78.41
40502;BME280;29631;49.168;9.848;2023-03-23T14:21:59;96031.31;;;20.01;78.44
40502;BME280;29631;49.168;9.848;2023-03-23T14:24:28;96038.22;;;20.07;78.45
40502;BME280;29631;49.168;9.848;2023-03-23T14:27:15;96030.75;;;20.04;78.82
40502;BME280;29631;49.168;9.848;2023-03-23T14:29:42;96028.59;;;20.06;78.61
40502;BME280;29631;49.168;9.848;2023-03-23T14:32:18;96003.25;;;19.93;78.27
40502;BME280;29631;49.168;9.848;2023-03-23T14:34:47;96033.06;;;20.15;78.02
40502;BME280;29631;49.168;9.848;2023-03-23T14:37:15;96039.13;;;20.26;78.16
40502;BME280;29631;49.168;9.848;2023-03-23T14:39:49;96042.34;;;20.28;77.97
40502;BME280;29631;49.168;9.848;2023-03-23T14:42:26;96043.38;;;20.32;78.01
40502;BME280;29631;49.168;9.848;2023-03-23T14:44:53;96021.53;;;20.20;78.14
40502;BME280;29631;49.168;9.848;2023-03-23T14:47:26;96039.38;;;20.34;78.35
40502;BME280;29631;49.168;9.848;2023-03-23T14:49:56;96048.97;;;20.35;77.91
40502;BME280;29631;49.168;9.848;2023-03-23T14:52:27;96039.63;;;20.33;78.16
40502;BME280;29631;49.168;9.848;2023-03-23T14:54:53;96050.81;;;20.40;78.43
40502;BME280;29631;49.168;9.848;2023-03-23T14:57:27;96053.50;;;20.40;78.13
40502;BME280;29631;49.168;9.848;2023-03-23T14:59:53;96054.03;;;20.42;78.25
40502;BME280;29631;49.168;9.848;2023-03-23T15:04:59;96057.19;;;20.48;77.89
40502;BME280;29631;49.168;9.848;2023-03-23T15:07:34;96052.91;;;20.47;78.30
40502;BME280;29631;49.168;9.848;2023-03-23T15:10:00;96053.91;;;20.51;77.75
40502;BME280;29631;49.168;9.848;2023-03-23T15:12:29;96051.78;;;20.53;77.87
40502;BME280;29631;49.168;9.848;2023-03-23T15:15:03;96063.50;;;20.57;78.06
40502;BME280;29631;49.168;9.848;2023-03-23T15:17:37;96048.56;;;20.51;78.06
40502;BME280;29631;49.168;9.848;2023-03-23T15:20:43;96054.41;;;20.58;77.83
40502;BME280;29631;49.168;9.848;2023-03-23T15:23:17;96049.84;;;20.59;77.72